Time;durP1;ratioP1;P1;durP2;ratioP2;P2;SDS_P1;SDS_P2;PMS_P1;PMS_P2;Temp;Humidity;BMP_temperature;BMP_pressure;BME280_temperature;BME280_humidity;BME280_pressure;Samples;Min_cycle;Max_cycle;Signal;HPM_P1;HPM_P2
2023/10/31 00:01:48;;;;;;;2.60;2.40;;;11.20;99.90;;;;;;5079299;28;20583;-42
2023/10/31 00:04:15;;;;;;;3.90;3.50;;;11.20;99.90;;;;;;5094540;28;20669;-42
2023/10/31 00:06:42;;;;;;;4.83;2.87;;;11.20;99.90;;;;;;5114323;28;20805;-41
2023/10/31 00:09:10;;;;;;;4.53;2.93;;;11.20;99.90;;;;;;5114049;28;20182;-42
2023/10/31 00:11:41;;;;;;;3.83;3.30;;;11.20;99.90;;;;;;5114339;28;20202;-42
2023/10/31 00:14:08;;;;;;;4.50;3.80;;;11.20;99.90;;;;;;5114384;28;20206;-43
2023/10/31 00:16:35;;;;;;;5.37;3.47;;;11.10;99.90;;;;;;5078591;28;20182;-43
2023/10/31 00:19:03;;;;;;;4.13;3.73;;;11.10;99.90;;;;;;5096692;28;20594;-42
2023/10/31 00:21:28;;;;;;;3.90;3.43;;;11.10;99.90;;;;;;5115212;28;20218;-41
2023/10/31 00:23:56;;;;;;;3.87;3.47;;;11.10;99.90;;;;;;5096781;28;20235;-42
2023/10/31 00:26:21;;;;;;;3.10;2.70;;;11.10;99.90;;;;;;5097642;28;20591;-42
2023/10/31 00:28:56;;;;;;;3.67;2.60;;;11.10;99.90;;;;;;5079785;28;20186;-41
2023/10/31 00:31:24;;;;;;;5.60;3.50;;;11.10;99.90;;;;;;5114418;28;20693;-41
2023/10/31 00:33:49;;;;;;;4.37;3.17;;;11.10;99.90;;;;;;5113534;28;20232;-42
2023/10/31 00:36:15;;;;;;;2.80;2.20;;;11.10;99.90;;;;;;5095217;28;20702;-41
2023/10/31 00:38:41;;;;;;;3.83;1.90;;;11.00;99.90;;;;;;5113183;28;20170;-41
2023/10/31 00:41:07;;;;;;;2.63;1.77;;;11.00;99.90;;;;;;5095245;28;20214;-42
2023/10/31 00:43:32;;;;;;;2.57;1.73;;;11.00;99.90;;;;;;5116866;28;20178;-41
2023/10/31 00:45:58;;;;;;;4.23;1.73;;;11.00;99.90;;;;;;5117107;28;20178;-41
2023/10/31 00:48:24;;;;;;;4.33;2.30;;;10.90;99.90;;;;;;5116791;28;20189;-42
2023/10/31 00:50:50;;;;;;;5.20;2.37;;;10.90;99.90;;;;;;5098892;28;20262;-42
2023/10/31 00:53:17;;;;;;;3.07;2.10;;;11.10;99.90;;;;;;5116592;28;20201;-42
2023/10/31 00:55:44;;;;;;;3.87;2.20;;;10.90;99.90;;;;;;5098322;28;20179;-42
2023/10/31 00:58:14;;;;;;;3.40;2.30;;;10.90;99.90;;;;;;5116944;28;20194;-43
2023/10/31 01:00:43;;;;;;;4.60;2.27;;;10.90;99.90;;;;;;5116428;28;20752;-43
2023/10/31 01:03:10;;;;;;;3.83;2.43;;;10.80;99.90;;;;;;5116411;28;20649;-43
2023/10/31 01:05:36;;;;;;;4.63;2.77;;;10.80;99.90;;;;;;5116342;28;20525;-42
2023/10/31 01:08:03;;;;;;;3.80;2.37;;;10.80;99.90;;;;;;5098598;28;20182;-42
2023/10/31 01:10:29;;;;;;;5.53;2.53;;;10.80;99.90;;;;;;5081150;28;20214;-41
2023/10/31 01:12:58;;;;;;;6.10;2.60;;;10.70;99.90;;;;;;5116527;28;20541;-41
2023/10/31 01:15:24;;;;;;;5.50;3.37;;;10.70;99.90;;;;;;5098310;28;20245;-41
2023/10/31 01:17:51;;;;;;;5.63;3.00;;;10.70;99.90;;;;;;5098392;28;20210;-42
2023/10/31 01:20:17;;;;;;;4.30;2.87;;;10.70;99.90;;;;;;5097738;28;20212;-43
2023/10/31 01:22:46;;;;;;;6.10;2.80;;;10.70;99.90;;;;;;5098362;28;20190;-42
2023/10/31 01:25:12;;;;;;;7.17;2.83;;;10.80;99.90;;;;;;5097817;28;20277;-42
2023/10/31 01:27:39;;;;;;;4.80;2.43;;;10.70;99.90;;;;;;5116043;28;20269;-41
2023/10/31 01:30:06;;;;;;;4.30;2.70;;;10.70;99.90;;;;;;5116121;28;20186;-41
2023/10/31 01:32:41;;;;;;;5.17;2.70;;;10.70;99.90;;;;;;5081169;28;20190;-44
2023/10/31 01:35:07;;;;;;;3.73;2.60;;;10.60;99.90;;;;;;5097521;28;20209;-42
2023/10/31 01:37:33;;;;;;;4.00;3.00;;;10.60;99.90;;;;;;5115653;28;20185;-40
2023/10/31 01:39:59;;;;;;;5.53;3.07;;;10.60;99.90;;;;;;5097188;28;20560;-41
2023/10/31 01:42:28;;;;;;;5.27;2.80;;;10.60;99.90;;;;;;5097706;28;20243;-44
2023/10/31 01:44:55;;;;;;;4.77;3.40;;;10.60;99.90;;;;;;5115631;28;20178;-43
2023/10/31 01:47:22;;;;;;;6.37;3.40;;;10.60;99.90;;;;;;5115893;28;20186;-41
2023/10/31 01:49:48;;;;;;;6.53;3.13;;;10.60;99.90;;;;;;5115511;28;20190;-42
2023/10/31 01:52:14;;;;;;;4.30;3.23;;;10.60;99.90;;;;;;5115057;28;20229;-44
2023/10/31 01:54:44;;;;;;;7.30;3.50;;;10.60;99.90;;;;;;5114739;28;20289;-41
2023/10/31 01:57:12;;;;;;;4.77;3.40;;;10.60;99.90;;;;;;5097068;28;20765;-44
2023/10/31 01:59:39;;;;;;;5.27;3.77;;;10.60;99.90;;;;;;5097733;28;20191;-41
2023/10/31 02:02:07;;;;;;;7.60;4.00;;;10.60;99.90;;;;;;5115257;28;20202;-42
2023/10/31 02:04:33;;;;;;;8.10;3.80;;;10.50;99.90;;;;;;5079611;28;20194;-42
2023/10/31 02:07:02;;;;;;;5.73;3.73;;;10.50;99.90;;;;;;5115293;28;20526;-44
2023/10/31 02:09:30;;;;;;;10.90;4.20;;;10.50;99.90;;;;;;5115226;28;20229;-42
2023/10/31 02:11:56;;;;;;;8.63;4.53;;;10.40;99.90;;;;;;5115357;28;20623;-42
2023/10/31 02:14:25;;;;;;;6.90;4.00;;;10.50;99.90;;;;;;5115796;28;20228;-42
2023/10/31 02:16:51;;;;;;;6.57;4.27;;;10.50;99.90;;;;;;5096771;28;20205;-44
2023/10/31 02:19:21;;;;;;;6.63;4.03;;;10.50;99.90;;;;;;5115165;28;20638;-42
2023/10/31 02:21:48;;;;;;;7.47;4.30;;;10.50;99.90;;;;;;5097086;28;20621;-43
2023/10/31 02:24:14;;;;;;;7.30;3.60;;;10.50;99.90;;;;;;5115431;28;20186;-42
2023/10/31 02:26:42;;;;;;;6.47;3.83;;;10.50;99.90;;;;;;5097230;28;20650;-44
2023/10/31 02:29:09;;;;;;;5.57;3.63;;;10.50;99.90;;;;;;5080408;28;20194;-41
2023/10/31 02:31:35;;;;;;;5.77;3.67;;;10.50;99.90;;;;;;5080011;28;20237;-41
2023/10/31 02:34:00;;;;;;;4.83;3.43;;;10.50;99.90;;;;;;5096455;28;20297;-41
2023/10/31 02:36:26;;;;;;;6.03;3.87;;;10.50;99.90;;;;;;5114824;28;20281;-40
2023/10/31 02:38:51;;;;;;;4.50;3.27;;;10.40;99.90;;;;;;5114600;28;20186;-43
2023/10/31 02:41:17;;;;;;;5.80;3.50;;;10.40;99.90;;;;;;5114342;28;20282;-42
2023/10/31 02:43:43;;;;;;;12.07;3.20;;;10.40;99.90;;;;;;5096352;28;20182;-40
2023/10/31 02:46:12;;;;;;;4.57;3.30;;;10.40;99.90;;;;;;5114850;28;20214;-40
2023/10/31 02:48:41;;;;;;;4.57;3.23;;;10.40;99.90;;;;;;5113599;28;20201;-41
2023/10/31 02:51:07;;;;;;;4.90;3.07;;;10.30;99.90;;;;;;5114325;28;20284;-43
2023/10/31 02:53:34;;;;;;;7.20;3.50;;;10.30;99.90;;;;;;5114306;28;20206;-41
2023/10/31 02:56:00;;;;;;;8.13;3.40;;;10.30;99.90;;;;;;5114605;28;20185;-40
2023/10/31 02:58:26;;;;;;;5.47;2.67;;;10.30;99.90;;;;;;5114549;28;20536;-42
2023/10/31 03:00:51;;;;;;;4.27;2.80;;;10.30;99.90;;;;;;5114215;28;20212;-41
2023/10/31 03:03:17;;;;;;;6.17;2.70;;;10.30;99.90;;;;;;5096162;28;20192;-42
2023/10/31 03:05:44;;;;;;;2.80;2.30;;;10.30;99.90;;;;;;5114121;28;20189;-40
2023/10/31 03:08:11;;;;;;;6.17;2.83;;;10.30;99.90;;;;;;5114379;28;20186;-41
2023/10/31 03:10:38;;;;;;;3.23;2.30;;;10.20;99.90;;;;;;5114273;28;20743;-41
2023/10/31 03:13:07;;;;;;;4.30;2.17;;;10.30;99.90;;;;;;5114063;28;20548;-39
2023/10/31 03:15:32;;;;;;;3.60;2.20;;;10.40;99.90;;;;;;5095750;28;20237;-40
2023/10/31 03:17:58;;;;;;;2.63;1.80;;;10.30;99.90;;;;;;5113987;28;20183;-41
2023/10/31 03:20:24;;;;;;;2.90;2.17;;;10.40;99.90;;;;;;5114373;28;20194;-39
2023/10/31 03:22:50;;;;;;;4.30;2.00;;;10.30;99.90;;;;;;5095842;28;20567;-41
2023/10/31 03:25:18;;;;;;;4.07;2.10;;;10.40;99.90;;;;;;5113850;28;20178;-40
2023/10/31 03:27:44;;;;;;;3.50;2.00;;;10.40;99.90;;;;;;5114661;28;20187;-40
2023/10/31 03:30:14;;;;;;;4.43;2.00;;;10.40;99.90;;;;;;5095570;28;20702;-40
2023/10/31 03:32:43;;;;;;;2.67;1.90;;;10.40;99.90;;;;;;5114130;28;20170;-39
2023/10/31 03:35:08;;;;;;;2.40;1.70;;;10.50;99.90;;;;;;5113706;28;20206;-40
2023/10/31 03:37:41;;;;;;;4.53;2.10;;;10.50;99.90;;;;;;5113764;28;20548;-42
2023/10/31 03:40:08;;;;;;;2.20;1.80;;;10.50;99.90;;;;;;5113836;28;20284;-40
2023/10/31 03:42:35;;;;;;;2.97;1.90;;;10.60;99.90;;;;;;5114090;28;20174;-42
2023/10/31 03:45:02;;;;;;;2.53;1.83;;;10.60;99.90;;;;;;5114008;28;20189;-42
2023/10/31 03:47:28;;;;;;;2.43;2.20;;;10.60;99.90;;;;;;5095131;28;20198;-42
2023/10/31 03:49:59;;;;;;;3.00;2.20;;;10.60;99.90;;;;;;5095556;28;20565;-43
2023/10/31 03:52:25;;;;;;;3.23;2.40;;;10.60;99.90;;;;;;5114269;28;20184;-43
2023/10/31 03:54:50;;;;;;;5.23;2.30;;;10.60;99.90;;;;;;5113559;28;20210;-42
2023/10/31 03:57:17;;;;;;;4.27;2.53;;;10.60;99.90;;;;;;5114049;28;20179;-41
2023/10/31 03:59:44;;;;;;;3.50;2.43;;;10.50;99.90;;;;;;5113633;28;20178;-42
2023/10/31 04:02:10;;;;;;;2.43;2.10;;;10.60;99.90;;;;;;5095609;28;20206;-41
2023/10/31 04:04:36;;;;;;;5.80;2.57;;;10.50;99.90;;;;;;5078396;28;20661;-43
2023/10/31 04:07:01;;;;;;;2.90;2.47;;;10.60;99.90;;;;;;5095732;28;20197;-42
2023/10/31 04:09:27;;;;;;;3.23;2.23;;;10.50;99.90;;;;;;5113521;28;20193;-41
2023/10/31 04:11:55;;;;;;;2.80;2.03;;;10.50;99.90;;;;;;5113354;28;20206;-41
2023/10/31 04:14:22;;;;;;;3.33;2.40;;;10.50;99.90;;;;;;5113336;28;20209;-42
2023/10/31 04:16:48;;;;;;;3.90;2.87;;;10.50;99.90;;;;;;5115342;28;20638;-43
2023/10/31 04:19:14;;;;;;;2.63;2.00;;;10.50;99.90;;;;;;5099205;28;20202;-40
2023/10/31 04:21:39;;;;;;;3.87;2.53;;;10.50;99.90;;;;;;5098877;28;20210;-42
2023/10/31 04:24:05;;;;;;;2.47;2.27;;;10.60;99.90;;;;;;5117518;28;20197;-39
2023/10/31 04:26:31;;;;;;;2.83;2.43;;;10.60;99.90;;;;;;5117328;28;20190;-39
2023/10/31 04:28:57;;;;;;;6.17;2.87;;;10.60;99.90;;;;;;5117184;28;20248;-40
2023/10/31 04:31:24;;;;;;;4.73;2.80;;;10.60;99.90;;;;;;5098922;28;20210;-43
2023/10/31 04:33:50;;;;;;;2.80;2.57;;;10.60;99.90;;;;;;5116802;28;20222;-41
2023/10/31 04:36:15;;;;;;;2.47;2.00;;;10.60;99.90;;;;;;5117060;28;20667;-43
2023/10/31 04:38:41;;;;;;;4.30;2.57;;;10.60;99.90;;;;;;5117024;28;20545;-41
2023/10/31 04:41:09;;;;;;;5.53;3.20;;;10.60;99.90;;;;;;5116722;28;20585;-40
2023/10/31 04:43:35;;;;;;;2.53;2.33;;;10.60;99.90;;;;;;5116294;28;20194;-42
2023/10/31 04:46:00;;;;;;;4.47;2.57;;;10.60;99.90;;;;;;5116871;28;20662;-42
2023/10/31 04:48:27;;;;;;;3.03;2.10;;;10.60;99.90;;;;;;5116831;28;20222;-40
2023/10/31 04:50:53;;;;;;;4.20;2.50;;;10.60;99.90;;;;;;5116876;28;20288;-39
2023/10/31 04:53:19;;;;;;;3.53;2.67;;;10.70;99.90;;;;;;5098978;28;20266;-41
2023/10/31 04:55:44;;;;;;;3.17;2.67;;;10.60;99.90;;;;;;5098516;28;20664;-42
2023/10/31 04:58:13;;;;;;;3.77;2.43;;;10.60;99.90;;;;;;5098593;28;20327;-40
2023/10/31 05:00:40;;;;;;;3.90;2.40;;;10.60;99.90;;;;;;5116489;28;20225;-41
2023/10/31 05:03:06;;;;;;;5.00;2.60;;;10.60;99.90;;;;;;5097122;28;20268;-40
2023/10/31 05:05:32;;;;;;;4.33;2.27;;;10.60;99.90;;;;;;5116512;28;20272;-41
2023/10/31 05:07:58;;;;;;;3.80;2.53;;;10.60;99.90;;;;;;5098212;28;20277;-40
2023/10/31 05:10:24;;;;;;;4.27;1.97;;;10.60;99.90;;;;;;5116287;28;20206;-40
2023/10/31 05:12:52;;;;;;;5.37;2.40;;;10.70;99.90;;;;;;5116651;28;20193;-39
2023/10/31 05:15:22;;;;;;;2.63;2.20;;;10.70;99.90;;;;;;5116435;28;20252;-40
2023/10/31 05:17:47;;;;;;;4.77;2.47;;;10.60;99.90;;;;;;5116438;28;20226;-40
2023/10/31 05:20:20;;;;;;;3.00;2.20;;;10.60;99.90;;;;;;5098023;28;20766;-39
2023/10/31 05:22:47;;;;;;;2.10;1.80;;;10.60;99.90;;;;;;5116761;28;20585;-41
2023/10/31 05:25:14;;;;;;;3.77;2.37;;;10.60;99.90;;;;;;5116403;28;20189;-40
2023/10/31 05:27:39;;;;;;;4.37;2.10;;;10.60;99.90;;;;;;5097017;28;20194;-41
2023/10/31 05:30:07;;;;;;;5.83;2.37;;;10.60;99.90;;;;;;5115867;28;20292;-40
2023/10/31 05:32:32;;;;;;;5.13;2.50;;;10.60;99.90;;;;;;5115967;28;20186;-41
2023/10/31 05:34:58;;;;;;;5.20;2.30;;;10.60;99.90;;;;;;5115286;28;20587;-40
2023/10/31 05:37:23;;;;;;;2.93;2.20;;;10.60;99.90;;;;;;5116390;28;20274;-40
2023/10/31 05:39:50;;;;;;;2.23;2.03;;;10.60;99.90;;;;;;5115773;28;20197;-41
2023/10/31 05:42:20;;;;;;;5.67;2.37;;;10.60;99.90;;;;;;5115590;28;20233;-41
2023/10/31 05:44:46;;;;;;;2.53;2.33;;;10.60;99.90;;;;;;5115765;28;20190;-40
2023/10/31 05:47:11;;;;;;;2.97;2.37;;;10.60;99.90;;;;;;5116283;28;20239;-42
2023/10/31 05:49:37;;;;;;;3.63;2.57;;;10.60;99.90;;;;;;5115673;28;20193;-41
2023/10/31 05:52:03;;;;;;;4.17;2.53;;;10.60;99.90;;;;;;5115588;28;20206;-41
2023/10/31 05:54:29;;;;;;;3.23;2.43;;;10.60;99.90;;;;;;5115938;28;20300;-39
2023/10/31 05:56:54;;;;;;;5.13;3.13;;;10.50;99.90;;;;;;5115801;28;20190;-40
2023/10/31 05:59:20;;;;;;;3.77;2.50;;;10.50;99.90;;;;;;5115399;28;20193;-42
2023/10/31 06:01:45;;;;;;;3.17;2.87;;;10.50;99.90;;;;;;5115986;28;20206;-42
2023/10/31 06:04:11;;;;;;;3.87;2.97;;;10.50;99.90;;;;;;5113987;28;20197;-40
2023/10/31 06:06:38;;;;;;;3.90;3.30;;;10.40;99.90;;;;;;5097221;28;20201;-40
2023/10/31 06:09:04;;;;;;;3.63;3.17;;;10.50;99.90;;;;;;5097067;28;20192;-41
2023/10/31 06:11:30;;;;;;;4.47;3.13;;;10.40;99.90;;;;;;5115363;28;20202;-40
2023/10/31 06:13:56;;;;;;;4.53;3.50;;;10.40;99.90;;;;;;5115383;28;20328;-41
2023/10/31 06:16:22;;;;;;;3.63;3.17;;;10.40;99.90;;;;;;5115101;28;20218;-40
2023/10/31 06:18:47;;;;;;;3.80;3.33;;;10.40;99.90;;;;;;5113834;28;20190;-42
2023/10/31 06:21:13;;;;;;;3.60;3.27;;;10.30;99.90;;;;;;5115336;28;20225;-39
2023/10/31 06:23:45;;;;;;;6.07;3.73;;;10.40;99.90;;;;;;5114992;28;20190;-40
2023/10/31 06:26:10;;;;;;;3.53;3.23;;;10.30;99.90;;;;;;5115198;28;20189;-40
2023/10/31 06:28:37;;;;;;;3.90;3.27;;;10.30;99.90;;;;;;5114847;28;20298;-40
2023/10/31 06:31:03;;;;;;;4.17;3.77;;;10.30;99.90;;;;;;5114923;28;20284;-39
2023/10/31 06:33:29;;;;;;;4.63;3.63;;;10.40;99.90;;;;;;5096680;28;20274;-42
2023/10/31 06:35:55;;;;;;;5.87;3.73;;;10.30;99.90;;;;;;5114954;28;20342;-40
2023/10/31 06:38:21;;;;;;;5.27;3.20;;;10.40;99.90;;;;;;5114660;28;20232;-40
2023/10/31 06:40:46;;;;;;;6.73;3.20;;;10.40;99.90;;;;;;5114047;28;20257;-40
2023/10/31 06:43:12;;;;;;;6.90;3.83;;;10.40;99.90;;;;;;5096664;28;20206;-41
2023/10/31 06:45:39;;;;;;;3.67;3.17;;;10.40;99.90;;;;;;5114629;28;20186;-40
2023/10/31 06:48:07;;;;;;;4.83;4.03;;;10.30;99.90;;;;;;5114817;28;20545;-40
2023/10/31 06:50:36;;;;;;;3.70;3.30;;;10.30;99.90;;;;;;5114726;28;20210;-40
2023/10/31 06:53:02;;;;;;;5.23;4.00;;;10.30;99.90;;;;;;5115007;28;20210;-42
2023/10/31 06:55:28;;;;;;;7.63;4.33;;;10.40;99.90;;;;;;5114610;28;20217;-41
2023/10/31 06:57:54;;;;;;;8.67;4.00;;;10.30;99.90;;;;;;5114408;28;20240;-39
2023/10/31 07:00:20;;;;;;;4.80;3.90;;;10.30;99.90;;;;;;5114572;28;20206;-41
2023/10/31 07:02:47;;;;;;;5.10;4.03;;;10.30;99.90;;;;;;5114873;28;20250;-41
2023/10/31 07:05:13;;;;;;;6.03;3.80;;;10.30;99.90;;;;;;5095976;28;20729;-39
2023/10/31 07:07:42;;;;;;;5.07;4.13;;;10.30;99.90;;;;;;5114805;28;20182;-41
2023/10/31 07:10:08;;;;;;;4.20;3.53;;;10.30;99.90;;;;;;5114243;28;20197;-40
2023/10/31 07:12:35;;;;;;;5.20;3.93;;;10.30;99.90;;;;;;5114498;28;20225;-41
2023/10/31 07:15:01;;;;;;;4.40;4.00;;;10.30;99.90;;;;;;5114426;28;20301;-41
2023/10/31 07:17:26;;;;;;;4.63;4.20;;;10.40;99.90;;;;;;5115126;28;20205;-41
2023/10/31 07:19:52;;;;;;;4.30;3.87;;;10.40;99.90;;;;;;5114860;28;20183;-41
2023/10/31 07:22:18;;;;;;;6.30;3.70;;;10.40;99.90;;;;;;5114981;28;20205;-41
2023/10/31 07:24:43;;;;;;;7.40;4.40;;;10.40;99.90;;;;;;5114781;28;20191;-47
2023/10/31 07:27:09;;;;;;;4.10;3.70;;;10.50;99.90;;;;;;5113954;28;20202;-47
2023/10/31 07:29:35;;;;;;;4.10;3.70;;;10.40;99.90;;;;;;5114162;28;20190;-46
2023/10/31 07:32:01;;;;;;;4.50;3.63;;;10.50;99.90;;;;;;5113929;28;20213;-47
2023/10/31 07:34:29;;;;;;;5.40;3.80;;;10.50;99.90;;;;;;5114351;28;20699;-45
2023/10/31 07:36:54;;;;;;;5.27;3.57;;;10.50;99.90;;;;;;5114121;28;20196;-46
2023/10/31 07:39:20;;;;;;;6.07;4.77;;;10.50;99.90;;;;;;5114221;28;20178;-45
2023/10/31 07:41:46;;;;;;;6.47;4.13;;;10.60;99.90;;;;;;5113978;28;20220;-46
2023/10/31 07:44:12;;;;;;;5.30;4.00;;;10.60;99.90;;;;;;5114065;28;20184;-46
2023/10/31 07:46:40;;;;;;;5.70;5.03;;;10.60;99.90;;;;;;5114105;28;20196;-46
2023/10/31 07:49:06;;;;;;;5.73;3.87;;;10.60;99.90;;;;;;5114134;28;20669;-46
2023/10/31 07:51:32;;;;;;;5.60;3.80;;;10.60;99.90;;;;;;5116904;28;20205;-46
2023/10/31 07:54:02;;;;;;;5.90;3.93;;;10.60;99.90;;;;;;5099961;28;20698;-47
2023/10/31 07:56:32;;;;;;;5.40;3.50;;;10.60;99.90;;;;;;5117863;28;20185;-45
2023/10/31 07:58:58;;;;;;;4.13;3.50;;;10.60;99.90;;;;;;5117941;28;20158;-45
2023/10/31 08:01:24;;;;;;;5.03;4.20;;;10.60;99.90;;;;;;5117818;28;20206;-47
2023/10/31 08:03:50;;;;;;;8.10;4.00;;;10.60;99.90;;;;;;5117685;28;20231;-45
2023/10/31 08:06:17;;;;;;;5.37;4.10;;;10.70;99.90;;;;;;5099826;28;20561;-46
2023/10/31 08:08:43;;;;;;;6.77;4.50;;;10.70;99.90;;;;;;5099419;28;20194;-46
2023/10/31 08:11:10;;;;;;;6.27;4.17;;;10.70;99.90;;;;;;5099809;28;20198;-45
2023/10/31 08:13:40;;;;;;;5.60;4.40;;;10.70;99.90;;;;;;5099503;28;20250;-45
2023/10/31 08:16:07;;;;;;;6.07;4.43;;;10.70;99.90;;;;;;5117372;28;20188;-46
2023/10/31 08:18:33;;;;;;;6.73;4.30;;;10.70;99.90;;;;;;5099476;28;20194;-45
2023/10/31 08:20:59;;;;;;;6.03;4.63;;;10.70;99.90;;;;;;5117664;28;20209;-45
2023/10/31 08:23:25;;;;;;;7.87;4.30;;;10.80;99.90;;;;;;5117650;28;20538;-45
2023/10/31 08:25:51;;;;;;;5.93;4.10;;;10.80;99.90;;;;;;5117451;28;20555;-46
2023/10/31 08:28:17;;;;;;;6.60;3.90;;;10.80;99.90;;;;;;5099102;28;20197;-45
2023/10/31 08:30:43;;;;;;;4.63;3.87;;;10.80;99.90;;;;;;5117082;28;20261;-45
2023/10/31 08:33:09;;;;;;;5.80;3.83;;;10.80;99.90;;;;;;5099248;28;20561;-46
2023/10/31 08:35:35;;;;;;;5.97;3.60;;;10.90;99.90;;;;;;5098996;28;20216;-46
2023/10/31 08:38:01;;;;;;;7.50;3.60;;;11.00;99.90;;;;;;5098992;28;20191;-46
2023/10/31 08:40:26;;;;;;;6.37;4.33;;;11.00;99.90;;;;;;5098777;28;20205;-46
2023/10/31 08:42:52;;;;;;;5.17;3.80;;;11.10;99.90;;;;;;5098620;28;20194;-45
2023/10/31 08:45:19;;;;;;;4.63;2.97;;;11.10;99.90;;;;;;5099183;28;20185;-47
2023/10/31 08:47:44;;;;;;;6.10;3.13;;;11.20;99.90;;;;;;5117277;28;20231;-46
2023/10/31 08:50:11;;;;;;;4.63;3.20;;;11.30;99.90;;;;;;5116955;28;20186;-47
2023/10/31 08:52:37;;;;;;;6.80;2.80;;;11.30;99.90;;;;;;5117299;28;20190;-46
2023/10/31 08:55:03;;;;;;;3.40;2.90;;;11.30;99.90;;;;;;5116906;28;20278;-46
2023/10/31 08:57:29;;;;;;;4.87;2.80;;;11.30;99.90;;;;;;5116855;28;20182;-45
2023/10/31 08:59:55;;;;;;;4.73;2.53;;;11.30;99.90;;;;;;5117166;28;20673;-46
2023/10/31 09:02:21;;;;;;;7.30;3.07;;;11.30;99.90;;;;;;5116184;28;20202;-46
2023/10/31 09:04:47;;;;;;;3.80;2.53;;;11.30;99.90;;;;;;5119286;28;20206;-46
2023/10/31 09:07:14;;;;;;;3.93;2.30;;;11.40;99.90;;;;;;5119794;28;20595;-45
2023/10/31 09:09:39;;;;;;;3.20;2.50;;;11.40;99.90;;;;;;5119280;28;20248;-45
2023/10/31 09:12:06;;;;;;;5.73;2.90;;;11.40;99.90;;;;;;5100634;28;20210;-46
2023/10/31 09:14:35;;;;;;;3.23;2.70;;;11.50;99.90;;;;;;5118794;28;20249;-46
2023/10/31 09:17:01;;;;;;;3.63;2.37;;;11.60;99.90;;;;;;5116601;28;20205;-46
2023/10/31 09:19:29;;;;;;;3.53;2.23;;;11.60;99.90;;;;;;5081417;28;20248;-46
2023/10/31 09:21:55;;;;;;;2.80;2.50;;;11.70;99.90;;;;;;5116526;28;20202;-45
2023/10/31 09:24:23;;;;;;;3.53;2.80;;;11.80;99.90;;;;;;5116190;28;20261;-46
2023/10/31 09:26:49;;;;;;;4.57;2.40;;;11.80;99.90;;;;;;5116264;28;20182;-47
2023/10/31 09:29:15;;;;;;;3.07;2.77;;;11.90;99.90;;;;;;5116051;28;20186;-46
2023/10/31 09:31:40;;;;;;;4.03;2.43;;;11.90;99.90;;;;;;5116129;28;20201;-46
2023/10/31 09:34:07;;;;;;;2.50;2.23;;;12.00;99.90;;;;;;5116236;28;20271;-46
2023/10/31 09:36:35;;;;;;;2.70;2.30;;;12.10;99.90;;;;;;5098226;28;20197;-46
2023/10/31 09:39:01;;;;;;;3.30;2.70;;;12.20;99.90;;;;;;5116209;28;20178;-46
2023/10/31 09:41:27;;;;;;;2.97;2.27;;;12.30;99.90;;;;;;5097708;28;20286;-45
2023/10/31 09:43:55;;;;;;;4.53;2.50;;;12.40;99.90;;;;;;5096402;28;20193;-44
2023/10/31 09:46:21;;;;;;;3.33;2.20;;;12.40;99.90;;;;;;5115783;28;20194;-47
2023/10/31 09:48:48;;;;;;;2.40;2.20;;;12.50;99.90;;;;;;5115799;28;20261;-46
2023/10/31 09:51:14;;;;;;;7.33;2.10;;;12.50;99.90;;;;;;5115630;28;20194;-47
2023/10/31 09:53:43;;;;;;;2.40;2.10;;;12.50;99.90;;;;;;5115872;28;20550;-48
2023/10/31 09:56:10;;;;;;;3.23;2.20;;;12.60;99.90;;;;;;5115546;28;20243;-46
2023/10/31 09:58:36;;;;;;;3.27;2.20;;;12.70;99.90;;;;;;5115740;28;20242;-47
2023/10/31 10:01:02;;;;;;;3.87;1.90;;;12.80;99.90;;;;;;5116143;28;20206;-42
2023/10/31 10:03:29;;;;;;;7.23;2.00;;;12.90;99.90;;;;;;5116035;28;20193;-42
2023/10/31 10:05:55;;;;;;;4.57;2.33;;;12.90;99.90;;;;;;5115347;28;20182;-41
2023/10/31 10:08:22;;;;;;;4.17;2.37;;;13.00;99.90;;;;;;5116466;28;20542;-45
2023/10/31 10:10:51;;;;;;;2.37;1.80;;;13.10;99.90;;;;;;5080367;28;20221;-43
2023/10/31 10:13:25;;;;;;;5.27;2.00;;;13.20;99.90;;;;;;5115230;28;20186;-42
2023/10/31 10:15:55;;;;;;;4.47;2.20;;;13.20;99.90;;;;;;5096961;28;20316;-43
2023/10/31 10:18:26;;;;;;;2.87;2.13;;;13.30;99.90;;;;;;5112785;28;20200;-44
2023/10/31 10:21:08;;;;;;;2.30;2.00;;;13.50;99.90;;;;;;5080526;28;20210;-44
2023/10/31 10:23:34;;;;;;;2.70;2.17;;;13.60;99.90;;;;;;5115548;28;20178;-44
2023/10/31 10:26:01;;;;;;;2.10;1.70;;;13.60;99.90;;;;;;5097215;28;20553;-43
2023/10/31 10:28:29;;;;;;;5.20;2.00;;;13.60;99.90;;;;;;5097180;28;20684;-43
2023/10/31 10:30:55;;;;;;;3.40;2.00;;;13.70;99.90;;;;;;5079749;28;20214;-42
2023/10/31 10:33:22;;;;;;;2.80;1.90;;;13.60;99.90;;;;;;5096638;28;20629;-43
2023/10/31 10:35:48;;;;;;;2.17;1.43;;;13.70;99.90;;;;;;5115149;28;20218;-43
2023/10/31 10:38:19;;;;;;;3.57;1.40;;;13.70;99.90;;;;;;5096966;28;20235;-43
2023/10/31 10:40:49;;;;;;;3.27;1.60;;;13.90;99.90;;;;;;5096338;28;20245;-42
2023/10/31 10:43:25;;;;;;;1.50;1.40;;;13.90;99.90;;;;;;5096874;28;20217;-42
2023/10/31 10:45:59;;;;;;;3.30;1.20;;;14.00;99.90;;;;;;5079719;28;20259;-41
2023/10/31 10:48:29;;;;;;;2.33;1.47;;;14.00;99.90;;;;;;5114034;28;20217;-43
2023/10/31 10:51:43;;;;;;;5.03;1.60;;;14.10;99.90;;;;;;5114811;28;20216;-41
2023/10/31 10:54:46;;;;;;;2.80;1.80;;;14.10;99.90;;;;;;5113349;28;20313;-43
2023/10/31 10:57:20;;;;;;;7.93;1.60;;;14.10;99.90;;;;;;5096483;28;20185;-42
2023/10/31 10:59:52;;;;;;;2.10;1.40;;;14.20;99.90;;;;;;5093668;28;20196;-48
2023/10/31 11:02:24;;;;;;;1.63;1.40;;;14.20;99.90;;;;;;5096102;28;20581;-46
2023/10/31 11:04:51;;;;;;;2.77;1.40;;;14.30;99.90;;;;;;5114352;28;20283;-47
2023/10/31 11:07:28;;;;;;;1.97;1.40;;;14.20;99.90;;;;;;5096348;28;20209;-45
2023/10/31 11:09:58;;;;;;;2.03;1.27;;;14.10;99.90;;;;;;5096037;28;20181;-46
2023/10/31 11:12:31;;;;;;;3.77;1.30;;;14.10;99.90;;;;;;5096934;28;20178;-47
2023/10/31 11:15:00;;;;;;;2.60;1.43;;;14.10;99.90;;;;;;5095988;28;20210;-45
2023/10/31 11:17:34;;;;;;;3.47;1.67;;;14.10;99.90;;;;;;5114344;28;20194;-47
2023/10/31 11:20:00;;;;;;;2.30;1.23;;;14.10;99.90;;;;;;5114372;28;20224;-47
2023/10/31 11:22:38;;;;;;;2.70;1.23;;;14.10;99.90;;;;;;5114709;28;20189;-47
2023/10/31 11:25:04;;;;;;;2.23;1.40;;;14.10;99.90;;;;;;5114154;28;20173;-47
2023/10/31 11:27:34;;;;;;;3.57;1.10;;;14.10;99.90;;;;;;5114271;28;20222;-48
2023/10/31 11:30:31;;;;;;;3.83;1.10;;;14.10;99.90;;;;;;5113791;28;20671;-48
2023/10/31 11:33:03;;;;;;;1.57;1.03;;;14.20;99.90;;;;;;5113876;28;20592;-49
2023/10/31 11:35:40;;;;;;;1.63;1.13;;;14.20;99.90;;;;;;5113868;28;20202;-47
2023/10/31 11:38:12;;;;;;;3.60;1.50;;;14.10;99.90;;;;;;5114385;28;20251;-47
2023/10/31 11:41:00;;;;;;;3.20;1.30;;;14.20;99.90;;;;;;5095793;28;20293;-47
2023/10/31 11:43:25;;;;;;;1.47;1.30;;;14.20;99.90;;;;;;5113780;28;20182;-49
2023/10/31 11:46:01;;;;;;;1.70;0.90;;;14.20;99.90;;;;;;5114372;28;20646;-47
2023/10/31 11:48:55;;;;;;;5.80;1.40;;;14.20;99.90;;;;;;5114545;28;20197;-47
2023/10/31 11:51:21;;;;;;;2.30;1.10;;;14.20;99.90;;;;;;5104675;28;20558;-46
2023/10/31 11:53:52;;;;;;;3.47;1.23;;;14.20;99.90;;;;;;5114103;28;20294;-46
2023/10/31 11:56:21;;;;;;;2.40;1.20;;;14.30;99.90;;;;;;5113986;28;20212;-47
2023/10/31 11:59:07;;;;;;;2.27;1.13;;;14.30;99.90;;;;;;5113456;28;20182;-45
2023/10/31 12:01:33;;;;;;;3.33;1.30;;;14.40;99.90;;;;;;5113457;28;20202;-47
2023/10/31 12:03:58;;;;;;;3.53;1.20;;;14.40;99.90;;;;;;5113473;28;20197;-47
2023/10/31 12:06:25;;;;;;;3.17;1.27;;;14.40;99.90;;;;;;5113640;28;20262;-46
2023/10/31 12:08:51;;;;;;;3.50;1.37;;;14.50;99.90;;;;;;5113899;28;20723;-46
2023/10/31 12:11:22;;;;;;;4.20;1.10;;;14.60;99.90;;;;;;5113659;28;20210;-48
2023/10/31 12:13:59;;;;;;;1.83;0.90;;;14.60;99.90;;;;;;5113620;28;20194;-48
2023/10/31 12:16:29;;;;;;;4.00;1.40;;;14.60;99.90;;;;;;5113463;28;20601;-47
2023/10/31 12:18:57;;;;;;;2.23;1.00;;;14.70;99.90;;;;;;5095236;28;20197;-47
2023/10/31 12:21:49;;;;;;;2.20;0.93;;;14.80;99.90;;;;;;5113629;28;20202;-47
2023/10/31 12:24:18;;;;;;;3.47;1.00;;;14.90;99.90;;;;;;5113422;28;20190;-46
2023/10/31 12:26:46;;;;;;;2.07;1.10;;;14.80;99.90;;;;;;5096763;28;20197;-46
2023/10/31 12:29:13;;;;;;;2.50;1.23;;;14.70;99.90;;;;;;5095708;28;20616;-47
2023/10/31 12:31:53;;;;;;;3.20;0.97;;;14.60;99.90;;;;;;5113382;28;20213;-48
2023/10/31 12:34:23;;;;;;;3.67;1.17;;;14.50;99.90;;;;;;5113486;28;20206;-47
2023/10/31 12:36:50;;;;;;;3.07;1.00;;;14.50;99.90;;;;;;5113303;28;20175;-47
2023/10/31 12:39:20;;;;;;;2.90;1.10;;;14.50;99.90;;;;;;5117137;28;20306;-47
2023/10/31 12:41:50;;;;;;;2.63;1.00;;;14.50;99.90;;;;;;5117025;28;20220;-47
2023/10/31 12:44:26;;;;;;;3.07;1.20;;;14.50;99.90;;;;;;5117035;28;20182;-47
2023/10/31 12:46:55;;;;;;;6.90;1.30;;;14.50;99.90;;;;;;5117561;28;20216;-47
2023/10/31 12:49:21;;;;;;;4.37;1.20;;;14.50;99.90;;;;;;5116942;28;20649;-46
2023/10/31 12:52:04;;;;;;;4.20;1.27;;;14.50;99.90;;;;;;5116793;28;20213;-47